createdAt,value
2023-03-17T00:08:23.285Z,9.93
2023-03-17T00:18:23.602Z,9.84
2023-03-17T00:28:23.946Z,9.54
2023-03-17T00:38:23.980Z,9.50
2023-03-17T00:48:24.004Z,9.57
2023-03-17T00:58:24.441Z,9.39
2023-03-17T01:08:24.728Z,9.56
2023-03-17T01:18:24.639Z,9.93
2023-03-17T01:28:24.886Z,10.63
2023-03-17T01:38:25.075Z,10.52
2023-03-17T01:48:25.109Z,10.23
2023-03-17T01:58:25.448Z,9.93
2023-03-17T02:08:25.487Z,9.78
2023-03-17T02:18:25.927Z,9.74
2023-03-17T02:28:26.044Z,9.78
2023-03-17T02:38:26.333Z,9.84
2023-03-17T02:48:26.410Z,10.17
2023-03-17T02:58:26.562Z,10.04
2023-03-17T03:08:26.605Z,9.97
2023-03-17T03:18:26.949Z,10.34
2023-03-17T03:28:26.967Z,9.84
2023-03-17T03:38:27.310Z,7.49
2023-03-17T03:48:27.341Z,6.37
2023-03-17T03:58:27.778Z,5.86
2023-03-17T04:08:27.820Z,5.85
2023-03-17T04:18:29.378Z,5.76
2023-03-17T04:28:28.214Z,5.58
2023-03-17T04:38:28.522Z,5.38
2023-03-17T04:48:28.537Z,5.27
2023-03-17T04:58:31.129Z,5.24
2023-03-17T05:08:28.953Z,5.24
2023-03-17T05:18:29.794Z,5.12
2023-03-17T05:28:29.443Z,5.15
2023-03-17T05:38:31.691Z,5.20
2023-03-17T05:48:29.876Z,5.15
2023-03-17T05:58:30.151Z,5.17
2023-03-17T06:08:31.435Z,5.21
2023-03-17T06:18:30.166Z,5.27
2023-03-17T06:28:30.203Z,5.28
2023-03-17T06:38:30.578Z,5.28
2023-03-17T06:48:30.609Z,5.36
2023-03-17T06:58:30.984Z,5.36
2023-03-17T07:08:31.191Z,5.51
2023-03-17T07:18:31.300Z,6.01
2023-03-17T07:28:31.330Z,6.30
2023-03-17T07:38:31.645Z,6.88
2023-03-17T07:48:31.692Z,7.53
2023-03-17T07:58:32.453Z,8.16
2023-03-17T08:08:32.087Z,8.76
2023-03-17T08:18:32.428Z,9.24
2023-03-17T08:28:32.475Z,9.56
2023-03-17T08:38:32.786Z,9.76
2023-03-17T08:48:32.817Z,10.41
2023-03-17T08:58:33.148Z,11.14
2023-03-17T09:08:33.201Z,11.51
2023-03-17T09:18:33.495Z,11.73
2023-03-17T09:28:33.522Z,12.49
2023-03-17T09:38:33.898Z,12.95
2023-03-17T09:48:33.919Z,13.00
2023-03-17T09:58:34.237Z,13.75
2023-03-17T10:08:34.558Z,13.59
2023-03-17T10:18:34.400Z,14.07
2023-03-17T10:28:34.635Z,14.28
2023-03-17T10:38:34.876Z,15.10
2023-03-17T10:48:35.103Z,15.36
2023-03-17T10:58:35.448Z,15.76
2023-03-17T11:08:35.511Z,15.94
2023-03-17T11:18:37.774Z,16.24
2023-03-17T11:28:35.813Z,16.20
2023-03-17T11:38:36.104Z,16.81
2023-03-17T11:48:36.145Z,17.03
2023-03-17T11:58:36.466Z,17.28
2023-03-17T12:08:36.488Z,17.46
2023-03-17T12:18:36.832Z,17.62
2023-03-17T12:28:36.867Z,17.56
2023-03-17T12:38:37.219Z,17.41
2023-03-17T12:48:37.243Z,16.94
2023-03-17T12:58:37.578Z,17.03
2023-03-17T13:08:37.592Z,17.62
2023-03-17T13:18:37.944Z,18.47
2023-03-17T13:28:37.973Z,18.36
2023-03-17T13:38:39.242Z,18.70
2023-03-17T13:48:38.524Z,18.12
2023-03-17T13:58:38.798Z,17.89
2023-03-17T14:08:38.830Z,18.58
2023-03-17T14:18:39.162Z,18.51
2023-03-17T14:28:39.245Z,17.16
2023-03-17T14:38:39.321Z,17.41
2023-03-17T14:48:39.349Z,16.86
2023-03-17T14:58:39.700Z,17.14
2023-03-17T15:08:39.730Z,17.62
2023-03-17T15:18:40.062Z,17.54
2023-03-17T15:28:40.084Z,17.46
2023-03-17T15:38:40.430Z,17.08
2023-03-17T15:48:40.613Z,17.58
2023-03-17T15:58:40.704Z,16.70
2023-03-17T16:08:40.799Z,16.31
2023-03-17T16:18:42.088Z,15.93
2023-03-17T16:28:41.158Z,15.59
2023-03-17T16:38:41.436Z,15.09
2023-03-17T16:48:41.460Z,14.98
2023-03-17T16:58:41.803Z,14.83
2023-03-17T17:08:42.139Z,15.03
2023-03-17T17:18:45.691Z,14.88
2023-03-17T17:28:42.277Z,13.73
2023-03-17T17:38:42.587Z,13.67
2023-03-17T17:48:42.614Z,13.15
2023-03-17T17:58:42.958Z,12.79
2023-03-17T18:08:42.892Z,12.17
2023-03-17T18:18:44.440Z,12.09
2023-03-17T18:28:43.381Z,12.27
2023-03-17T18:38:47.003Z,12.47
2023-03-17T18:48:43.980Z,12.14
2023-03-17T18:58:44.201Z,12.14
2023-03-17T19:08:44.358Z,11.99
2023-03-17T19:18:44.554Z,11.96
2023-03-17T19:28:44.777Z,11.14
2023-03-17T19:39:06.039Z,11.06
2023-03-17T19:48:45.240Z,11.83
2023-03-17T19:58:45.436Z,11.83
2023-03-17T20:08:45.397Z,11.36
2023-03-17T20:18:47.702Z,10.68
2023-03-17T20:28:45.875Z,10.52
2023-03-17T20:38:46.310Z,10.34
2023-03-17T20:48:46.260Z,10.08
2023-03-17T20:58:46.529Z,9.97
2023-03-17T21:08:46.729Z,10.01
2023-03-17T21:18:46.895Z,10.07
2023-03-17T21:28:47.142Z,9.97
2023-03-17T21:38:47.396Z,10.04
2023-03-17T21:48:47.310Z,9.31
2023-03-17T21:58:47.569Z,9.23
2023-03-17T22:08:48.148Z,9.13
2023-03-17T22:18:48.189Z,8.99
2023-03-17T22:28:48.216Z,8.95
2023-03-17T22:38:48.493Z,8.91
2023-03-17T22:48:48.538Z,8.77
2023-03-17T22:58:48.965Z,8.76
2023-03-17T23:08:48.998Z,8.50
2023-03-17T23:18:51.657Z,8.40
2023-03-17T23:28:50.255Z,8.16
2023-03-17T23:38:49.554Z,7.95
2023-03-17T23:48:49.798Z,8.36
2023-03-17T23:58:49.891Z,8.05
